Time;durP1;ratioP1;P1;durP2;ratioP2;P2;SDS_P1;SDS_P2;PMS_P1;PMS_P2;Temp;Humidity;BMP_temperature;BMP_pressure;BME280_temperature;BME280_humidity;BME280_pressure;Samples;Min_cycle;Max_cycle;Signal;HPM_P1;HPM_P2
2021/05/27 00:02:18;;;;;;;0.98;0.77;;;;;;;;;;5026748;28;20077;-74
2021/05/27 00:04:45;;;;;;;2.95;0.93;;;;;;;;;;5012069;28;20056;-74
2021/05/27 00:07:12;;;;;;;2.08;0.90;;;;;;;;;;5022057;28;20107;-74
2021/05/27 00:09:38;;;;;;;1.08;0.80;;;;;;;;;;5015389;28;20074;-74
2021/05/27 00:12:05;;;;;;;1.35;1.08;;;;;;;;;;4993476;28;20116;-74
2021/05/27 00:14:32;;;;;;;1.00;0.90;;;;;;;;;;4994076;28;20082;-73
2021/05/27 00:16:58;;;;;;;3.90;1.30;;;;;;;;;;5047660;28;20084;-73
2021/05/27 00:19:25;;;;;;;2.05;0.90;;;;;;;;;;5013298;28;20511;-74
2021/05/27 00:21:51;;;;;;;1.02;0.98;;;;;;;;;;4993057;28;20050;-74
2021/05/27 00:24:18;;;;;;;1.02;1.00;;;;;;;;;;4991499;28;20108;-73
2021/05/27 00:26:45;;;;;;;2.05;0.80;;;;;;;;;;4992540;28;20504;-75
2021/05/27 00:29:11;;;;;;;1.25;0.90;;;;;;;;;;5023663;28;20049;-74
2021/05/27 00:31:38;;;;;;;1.08;1.00;;;;;;;;;;5032587;28;20089;-73
2021/05/27 00:34:04;;;;;;;1.73;1.05;;;;;;;;;;5032316;28;20045;-73
2021/05/27 00:36:31;;;;;;;1.98;0.80;;;;;;;;;;5030900;28;20053;-74
2021/05/27 00:38:58;;;;;;;1.23;1.00;;;;;;;;;;5030948;28;20072;-73
2021/05/27 00:41:24;;;;;;;1.48;1.20;;;;;;;;;;5012377;28;20049;-74
2021/05/27 00:43:51;;;;;;;1.38;0.95;;;;;;;;;;5047470;28;20134;-74
2021/05/27 00:46:18;;;;;;;1.95;0.88;;;;;;;;;;5030732;28;20056;-74
2021/05/27 00:48:57;;;;;;;1.30;0.90;;;;;;;;;;5031064;28;20060;-74
2021/05/27 00:51:28;;;;;;;1.17;0.90;;;;;;;;;;5031014;28;20076;-74
2021/05/27 00:53:58;;;;;;;1.55;0.93;;;;;;;;;;5047145;28;20056;-74
2021/05/27 00:56:26;;;;;;;1.35;1.10;;;;;;;;;;5030839;28;20081;-73
2021/05/27 00:58:53;;;;;;;1.38;0.90;;;;;;;;;;5014821;28;20077;-74
2021/05/27 01:01:19;;;;;;;1.08;0.98;;;;;;;;;;5014900;28;20050;-74
2021/05/27 01:03:46;;;;;;;2.08;0.93;;;;;;;;;;5031127;28;20049;-73
2021/05/27 01:06:13;;;;;;;1.05;0.75;;;;;;;;;;5031703;28;20053;-74
2021/05/27 01:08:39;;;;;;;1.98;0.80;;;;;;;;;;5031820;28;20050;-73
2021/05/27 01:11:06;;;;;;;3.47;1.00;;;;;;;;;;5047083;28;20049;-74
2021/05/27 01:13:33;;;;;;;4.47;1.30;;;;;;;;;;5030739;28;20077;-73
2021/05/27 01:15:59;;;;;;;2.25;1.17;;;;;;;;;;5014131;28;20087;-74
2021/05/27 01:18:27;;;;;;;1.00;0.90;;;;;;;;;;5030705;28;20041;-74
2021/05/27 01:20:55;;;;;;;2.08;1.00;;;;;;;;;;5014621;28;20057;-74
2021/05/27 01:23:24;;;;;;;2.83;1.05;;;;;;;;;;5030871;28;20136;-75
2021/05/27 01:25:53;;;;;;;1.73;0.93;;;;;;;;;;5014626;28;20054;-74
2021/05/27 01:28:21;;;;;;;1.95;1.02;;;;;;;;;;5014677;28;20061;-74
2021/05/27 01:30:48;;;;;;;1.40;1.08;;;;;;;;;;5031416;28;20453;-73
2021/05/27 01:33:17;;;;;;;1.83;1.35;;;;;;;;;;5014157;28;20505;-73
2021/05/27 01:35:43;;;;;;;2.83;1.10;;;;;;;;;;5030686;28;20467;-74
2021/05/27 01:38:29;;;;;;;1.35;0.98;;;;;;;;;;4999790;28;20050;-73
2021/05/27 01:40:58;;;;;;;0.90;0.90;;;;;;;;;;5014799;28;20050;-74
2021/05/27 01:43:25;;;;;;;2.08;0.80;;;;;;;;;;5014503;28;20085;-74
2021/05/27 01:45:51;;;;;;;1.58;1.13;;;;;;;;;;5014285;28;20089;-74
2021/05/27 01:48:18;;;;;;;2.33;1.10;;;;;;;;;;5030941;28;20471;-74
2021/05/27 01:50:46;;;;;;;2.90;1.33;;;;;;;;;;5017882;28;20049;-74
2021/05/27 01:53:13;;;;;;;1.25;1.10;;;;;;;;;;5034171;28;20077;-74
2021/05/27 01:55:44;;;;;;;2.70;1.15;;;;;;;;;;5017012;28;20088;-74
2021/05/27 01:58:11;;;;;;;2.63;1.20;;;;;;;;;;5014230;28;20053;-74
2021/05/27 02:00:38;;;;;;;1.17;1.08;;;;;;;;;;4998093;28;20096;-74
2021/05/27 02:03:05;;;;;;;3.13;1.30;;;;;;;;;;5015368;28;20130;-73
2021/05/27 02:05:32;;;;;;;2.25;1.23;;;;;;;;;;4997766;28;20108;-74
2021/05/27 02:07:58;;;;;;;1.40;1.17;;;;;;;;;;5014254;28;20049;-74
2021/05/27 02:10:25;;;;;;;4.22;1.10;;;;;;;;;;5014085;28;20046;-74
2021/05/27 02:12:52;;;;;;;1.98;1.52;;;;;;;;;;5014168;28;20057;-74
2021/05/27 02:15:18;;;;;;;1.83;1.15;;;;;;;;;;5026112;28;20065;-74
2021/05/27 02:17:45;;;;;;;1.25;0.95;;;;;;;;;;5034825;28;20096;-74
2021/05/27 02:20:11;;;;;;;2.22;1.23;;;;;;;;;;5034601;28;20087;-74
2021/05/27 02:22:39;;;;;;;1.55;1.00;;;;;;;;;;5033535;28;20756;-74
2021/05/27 02:25:06;;;;;;;1.38;1.10;;;;;;;;;;5034756;28;20076;-74
2021/05/27 02:27:33;;;;;;;2.13;1.27;;;;;;;;;;5016979;28;20061;-74
2021/05/27 02:30:01;;;;;;;2.38;1.10;;;;;;;;;;5033921;28;20049;-75
2021/05/27 02:32:27;;;;;;;1.35;1.17;;;;;;;;;;5016855;28;20057;-75
2021/05/27 02:34:54;;;;;;;3.22;1.40;;;;;;;;;;5034625;28;20053;-75
2021/05/27 02:37:20;;;;;;;1.73;1.42;;;;;;;;;;5033011;28;20091;-76
2021/05/27 02:39:47;;;;;;;1.65;1.20;;;;;;;;;;5034290;28;20516;-75
2021/05/27 02:42:14;;;;;;;1.73;1.20;;;;;;;;;;5017168;28;20427;-75
2021/05/27 02:44:40;;;;;;;1.65;1.15;;;;;;;;;;5033247;28;20045;-75
2021/05/27 02:47:07;;;;;;;1.58;1.10;;;;;;;;;;5032860;28;20096;-75
2021/05/27 02:49:33;;;;;;;2.50;1.50;;;;;;;;;;5033625;28;20057;-75
2021/05/27 02:52:00;;;;;;;2.72;1.50;;;;;;;;;;5033183;28;20459;-74
2021/05/27 02:54:27;;;;;;;2.25;1.70;;;;;;;;;;5016439;28;20091;-75
2021/05/27 02:56:57;;;;;;;2.58;1.50;;;;;;;;;;5016731;28;20463;-75
2021/05/27 02:59:24;;;;;;;2.35;1.27;;;;;;;;;;5032918;28;20089;-75
2021/05/27 03:01:50;;;;;;;1.77;1.50;;;;;;;;;;5033113;28;20176;-75
2021/05/27 03:04:17;;;;;;;2.55;1.38;;;;;;;;;;5014386;28;20090;-75
2021/05/27 03:06:43;;;;;;;2.42;1.20;;;;;;;;;;4994544;28;20417;-75
2021/05/27 03:09:10;;;;;;;1.73;1.40;;;;;;;;;;4993477;28;20046;-75
2021/05/27 03:11:36;;;;;;;2.75;1.30;;;;;;;;;;4977457;28;20406;-75
2021/05/27 03:14:03;;;;;;;1.17;1.08;;;;;;;;;;5008841;28;20460;-75
2021/05/27 03:16:30;;;;;;;2.58;1.38;;;;;;;;;;5048976;28;20091;-75
2021/05/27 03:18:56;;;;;;;2.30;1.20;;;;;;;;;;5048969;28;20202;-75
2021/05/27 03:21:23;;;;;;;3.03;1.30;;;;;;;;;;5048854;28;20461;-75
2021/05/27 03:23:50;;;;;;;1.48;1.25;;;;;;;;;;5006114;28;20081;-75
2021/05/27 03:26:16;;;;;;;3.20;1.40;;;;;;;;;;5012543;28;20100;-75
2021/05/27 03:28:43;;;;;;;2.42;1.80;;;;;;;;;;5013901;28;20468;-75
2021/05/27 03:31:10;;;;;;;2.45;1.55;;;;;;;;;;5012805;28;20559;-75
2021/05/27 03:33:36;;;;;;;3.22;1.70;;;;;;;;;;5012524;28;20058;-75
2021/05/27 03:36:03;;;;;;;4.07;1.50;;;;;;;;;;5013608;28;20070;-74
2021/05/27 03:38:30;;;;;;;1.40;1.27;;;;;;;;;;5012453;28;20050;-75
2021/05/27 03:40:56;;;;;;;1.70;1.60;;;;;;;;;;5019652;28;20068;-74
2021/05/27 03:43:23;;;;;;;1.80;1.40;;;;;;;;;;5034544;28;20058;-75
2021/05/27 03:45:49;;;;;;;1.75;1.65;;;;;;;;;;5034293;28;20524;-75
2021/05/27 03:48:16;;;;;;;2.55;1.50;;;;;;;;;;5035044;28;20049;-75
2021/05/27 03:50:45;;;;;;;2.03;1.58;;;;;;;;;;5034537;28;20055;-75
2021/05/27 03:53:11;;;;;;;1.42;1.33;;;;;;;;;;5034451;28;20101;-73
2021/05/27 03:55:38;;;;;;;3.92;2.10;;;;;;;;;;5031932;28;20120;-75
2021/05/27 04:00:41;;;;;;;1.55;1.45;;;;;;;;;;5012300;28;20085;-75
2021/05/27 04:00:51;;;;;;;2.60;1.80;;;;;;;;;;5011979;28;20042;-74
2021/05/27 04:03:18;;;;;;;1.80;1.60;;;;;;;;;;4995884;28;20054;-75
2021/05/27 04:08:30;;;;;;;2.78;1.50;;;;;;;;;;5012132;28;20054;-75
2021/05/27 04:10:57;;;;;;;1.67;1.50;;;;;;;;;;5013223;28;20572;-75
2021/05/27 04:13:28;;;;;;;3.40;1.75;;;;;;;;;;5012149;28;20455;-75
2021/05/27 04:15:55;;;;;;;5.30;1.90;;;;;;;;;;5012729;28;20054;-75
2021/05/27 04:18:22;;;;;;;5.40;2.40;;;;;;;;;;5012916;28;20078;-75
2021/05/27 04:20:51;;;;;;;2.85;2.05;;;;;;;;;;5011365;28;20073;-75
2021/05/27 04:23:39;;;;;;;2.85;1.73;;;;;;;;;;5012665;28;20054;-75
2021/05/27 04:26:08;;;;;;;2.88;1.77;;;;;;;;;;4998396;28;20057;-73
2021/05/27 04:28:36;;;;;;;2.90;1.50;;;;;;;;;;5012534;28;20509;-75
2021/05/27 04:31:11;;;;;;;2.60;2.05;;;;;;;;;;5011339;28;20084;-75
2021/05/27 04:33:39;;;;;;;2.15;1.50;;;;;;;;;;4991890;28;20054;-73
2021/05/27 04:36:13;;;;;;;1.80;1.70;;;;;;;;;;4991641;28;20050;-75
2021/05/27 04:38:40;;;;;;;3.78;1.88;;;;;;;;;;4992534;28;20081;-75
2021/05/27 04:41:07;;;;;;;2.63;1.90;;;;;;;;;;4991862;28;20050;-75
2021/05/27 04:43:35;;;;;;;2.00;1.52;;;;;;;;;;4975642;28;20093;-75
2021/05/27 04:46:02;;;;;;;3.00;1.90;;;;;;;;;;4991646;28;20509;-75
2021/05/27 04:48:29;;;;;;;2.08;1.50;;;;;;;;;;4991522;28;20054;-75
2021/05/27 04:50:56;;;;;;;2.20;1.63;;;;;;;;;;5028741;28;20099;-75
2021/05/27 04:53:23;;;;;;;4.35;1.75;;;;;;;;;;5014640;28;20111;-70
2021/05/27 04:55:51;;;;;;;2.65;1.92;;;;;;;;;;5047503;28;20535;-72
2021/05/27 04:58:18;;;;;;;2.90;2.00;;;;;;;;;;5047232;28;20053;-73
2021/05/27 05:00:45;;;;;;;2.35;1.60;;;;;;;;;;5041766;28;20095;-72
2021/05/27 05:03:11;;;;;;;2.35;1.85;;;;;;;;;;5011064;28;20100;-72
2021/05/27 05:05:39;;;;;;;1.65;1.55;;;;;;;;;;5012029;28;20049;-68
2021/05/27 05:08:06;;;;;;;3.53;1.92;;;;;;;;;;5010882;28;20108;-68
2021/05/27 05:10:33;;;;;;;1.88;1.58;;;;;;;;;;4994231;28;20053;-70
2021/05/27 05:13:00;;;;;;;2.70;1.80;;;;;;;;;;4995025;28;20112;-70
2021/05/27 05:15:32;;;;;;;2.08;1.60;;;;;;;;;;5010526;28;20107;-72
2021/05/27 05:17:59;;;;;;;3.72;2.40;;;;;;;;;;5010794;28;20627;-73
2021/05/27 05:20:28;;;;;;;2.50;2.17;;;;;;;;;;5010433;28;20129;-73
2021/05/27 05:22:55;;;;;;;1.80;1.67;;;;;;;;;;5010998;28;20406;-73
2021/05/27 05:25:23;;;;;;;7.65;2.00;;;;;;;;;;4994396;28;20050;-73
2021/05/27 05:27:50;;;;;;;2.08;1.70;;;;;;;;;;4995059;28;20050;-73
2021/05/27 05:30:17;;;;;;;2.00;1.63;;;;;;;;;;5010548;28;20472;-73
2021/05/27 05:32:44;;;;;;;2.30;2.10;;;;;;;;;;5012461;28;20100;-72
2021/05/27 05:35:13;;;;;;;2.15;1.80;;;;;;;;;;5010802;28;20640;-73
2021/05/27 05:37:39;;;;;;;1.80;1.70;;;;;;;;;;4994416;28;20049;-73
2021/05/27 05:40:09;;;;;;;2.38;1.90;;;;;;;;;;5010546;28;20505;-73
2021/05/27 05:42:36;;;;;;;2.67;2.03;;;;;;;;;;4978694;28;20760;-73
2021/05/27 05:45:04;;;;;;;1.75;1.65;;;;;;;;;;4994608;28;20050;-73
2021/05/27 05:47:31;;;;;;;2.10;1.92;;;;;;;;;;5010432;28;20058;-72
2021/05/27 05:49:57;;;;;;;2.50;2.05;;;;;;;;;;5010711;28;20053;-73
2021/05/27 05:52:24;;;;;;;3.65;2.80;;;;;;;;;;5011618;28;20046;-73
2021/05/27 05:54:50;;;;;;;2.75;1.60;;;;;;;;;;5010668;28;20513;-72
2021/05/27 05:57:17;;;;;;;2.88;1.83;;;;;;;;;;4994290;28;20089;-73
2021/05/27 05:59:43;;;;;;;5.20;1.95;;;;;;;;;;5010447;28;20104;-73
2021/05/27 06:02:10;;;;;;;3.25;1.63;;;;;;;;;;5011602;28;20092;-73
2021/05/27 06:04:37;;;;;;;2.20;1.70;;;;;;;;;;5011581;28;20088;-73
2021/05/27 06:07:04;;;;;;;2.38;2.00;;;;;;;;;;5010008;28;20089;-72
2021/05/27 06:09:30;;;;;;;2.72;1.88;;;;;;;;;;5010216;28;20042;-72
2021/05/27 06:11:57;;;;;;;2.03;1.77;;;;;;;;;;4994760;28;20053;-72
2021/05/27 06:14:24;;;;;;;3.33;2.05;;;;;;;;;;5008736;28;20053;-72
2021/05/27 06:16:50;;;;;;;5.53;2.38;;;;;;;;;;5014329;28;20124;-72
2021/05/27 06:19:17;;;;;;;3.25;2.00;;;;;;;;;;5028890;28;20150;-72
2021/05/27 06:21:43;;;;;;;4.03;1.95;;;;;;;;;;5029440;28;20485;-72
2021/05/27 06:24:10;;;;;;;2.85;1.92;;;;;;;;;;5047231;28;20088;-72
2021/05/27 06:26:37;;;;;;;2.65;2.20;;;;;;;;;;5033100;28;20057;-72
2021/05/27 06:29:04;;;;;;;5.13;3.25;;;;;;;;;;5014554;28;20535;-72
2021/05/27 06:31:31;;;;;;;4.18;2.70;;;;;;;;;;4995868;28;20108;-72
2021/05/27 06:33:58;;;;;;;4.88;2.28;;;;;;;;;;5012106;28;20046;-72
2021/05/27 06:36:24;;;;;;;5.97;1.60;;;;;;;;;;5012452;28;20092;-72
2021/05/27 06:38:58;;;;;;;2.47;1.60;;;;;;;;;;5022111;28;20072;-72
2021/05/27 06:41:26;;;;;;;2.67;1.90;;;;;;;;;;5012558;28;20077;-72
2021/05/27 06:43:52;;;;;;;3.83;1.38;;;;;;;;;;5051228;28;20083;-72
2021/05/27 06:46:20;;;;;;;1.52;1.27;;;;;;;;;;5029406;28;20061;-73
2021/05/27 06:48:46;;;;;;;3.25;1.48;;;;;;;;;;5029211;28;20050;-73
2021/05/27 06:51:13;;;;;;;1.40;1.10;;;;;;;;;;5014444;28;20042;-72
2021/05/27 06:53:40;;;;;;;2.63;1.05;;;;;;;;;;5014204;28;20057;-73
2021/05/27 06:56:07;;;;;;;1.55;1.20;;;;;;;;;;5013380;28;20057;-73
2021/05/27 06:58:35;;;;;;;4.38;1.65;;;;;;;;;;5011370;28;20786;-72
2021/05/27 07:01:01;;;;;;;1.20;0.98;;;;;;;;;;4992027;28;20082;-73
2021/05/27 07:03:28;;;;;;;3.70;1.13;;;;;;;;;;5007724;28;20556;-72
2021/05/27 07:05:57;;;;;;;1.27;0.90;;;;;;;;;;5004608;28;20068;-73
2021/05/27 07:08:23;;;;;;;1.92;0.82;;;;;;;;;;5031958;28;20089;-74
2021/05/27 07:10:50;;;;;;;2.60;1.40;;;;;;;;;;5047433;28;20606;-74
2021/05/27 07:13:17;;;;;;;1.77;0.93;;;;;;;;;;5032253;28;20111;-72
2021/05/27 07:15:43;;;;;;;2.65;1.00;;;;;;;;;;5027488;28;20049;-72
2021/05/27 07:18:10;;;;;;;4.45;1.00;;;;;;;;;;5012288;28;20074;-73
2021/05/27 07:20:39;;;;;;;4.35;1.60;;;;;;;;;;5010278;28;20481;-72
2021/05/27 07:23:06;;;;;;;5.32;1.10;;;;;;;;;;5010948;28;20078;-71
2021/05/27 07:25:33;;;;;;;4.05;1.40;;;;;;;;;;5027307;28;20084;-71
2021/05/27 07:27:59;;;;;;;4.65;1.30;;;;;;;;;;5024717;28;20058;-70
2021/05/27 07:30:27;;;;;;;1.58;1.13;;;;;;;;;;5017969;28;20050;-71
2021/05/27 07:32:54;;;;;;;6.07;1.33;;;;;;;;;;4999844;28;20416;-70
2021/05/27 07:35:21;;;;;;;2.72;1.35;;;;;;;;;;5012880;28;20092;-71
2021/05/27 07:37:48;;;;;;;1.80;1.10;;;;;;;;;;5048529;28;20463;-71
2021/05/27 07:40:14;;;;;;;2.00;0.90;;;;;;;;;;5046787;28;20061;-70
2021/05/27 07:42:41;;;;;;;1.67;0.98;;;;;;;;;;5019311;28;20050;-70
2021/05/27 07:45:09;;;;;;;3.35;1.20;;;;;;;;;;5035882;28;20119;-70
2021/05/27 07:47:35;;;;;;;1.73;1.20;;;;;;;;;;4998314;28;20072;-73
2021/05/27 07:50:05;;;;;;;2.08;1.00;;;;;;;;;;5030692;28;20046;-73
2021/05/27 07:52:34;;;;;;;4.30;1.17;;;;;;;;;;5004789;28;20057;-74
2021/05/27 07:55:02;;;;;;;2.83;1.02;;;;;;;;;;5010739;28;20140;-73
2021/05/27 07:57:33;;;;;;;4.05;1.20;;;;;;;;;;4982763;28;20050;-70
2021/05/27 08:00:00;;;;;;;2.20;1.17;;;;;;;;;;5008753;28;20058;-73
2021/05/27 08:02:27;;;;;;;2.33;1.13;;;;;;;;;;5011461;28;20483;-72
2021/05/27 08:04:53;;;;;;;4.65;1.48;;;;;;;;;;5008847;28;20046;-72
2021/05/27 08:07:20;;;;;;;1.90;0.90;;;;;;;;;;5006960;28;20092;-72
2021/05/27 08:09:50;;;;;;;1.88;1.33;;;;;;;;;;5004743;28;20085;-74
2021/05/27 08:12:17;;;;;;;1.23;1.00;;;;;;;;;;4989135;28;20049;-74
2021/05/27 08:14:45;;;;;;;0.95;0.82;;;;;;;;;;4987028;28;20056;-75
2021/05/27 08:17:12;;;;;;;4.93;1.27;;;;;;;;;;4998007;28;20585;-74
2021/05/27 08:19:39;;;;;;;2.33;0.90;;;;;;;;;;5011682;28;20474;-74
2021/05/27 08:22:08;;;;;;;1.70;1.02;;;;;;;;;;5030891;28;20045;-73
2021/05/27 08:24:35;;;;;;;3.28;0.90;;;;;;;;;;5005771;28;20053;-73
2021/05/27 08:27:03;;;;;;;2.00;1.10;;;;;;;;;;4990647;28;20056;-73
2021/05/27 08:32:00;;;;;;;2.42;1.00;;;;;;;;;;4967272;28;20051;-73
2021/05/27 08:34:27;;;;;;;1.40;0.70;;;;;;;;;;4970702;28;20042;-74
2021/05/27 08:36:54;;;;;;;3.55;0.90;;;;;;;;;;4984450;28;20050;-73
2021/05/27 08:39:21;;;;;;;1.60;0.80;;;;;;;;;;4968015;28;20094;-73
2021/05/27 08:41:48;;;;;;;1.33;1.00;;;;;;;;;;4967637;28;20105;-73
2021/05/27 08:44:15;;;;;;;1.00;0.90;;;;;;;;;;4967793;28;20047;-74
2021/05/27 08:46:42;;;;;;;1.27;0.82;;;;;;;;;;4965357;28;20050;-73
2021/05/27 08:49:12;;;;;;;1.10;0.90;;;;;;;;;;4962715;28;20059;-77
2021/05/27 08:51:43;;;;;;;3.70;1.15;;;;;;;;;;4951476;28;20046;-78
2021/05/27 08:54:24;;;;;;;1.42;0.63;;;;;;;;;;4954035;28;20043;-76
2021/05/27 08:56:54;;;;;;;2.50;1.20;;;;;;;;;;4965418;28;20055;-76
2021/05/27 08:59:23;;;;;;;3.55;0.93;;;;;;;;;;4965556;28;20109;-75
2021/05/27 09:02:13;;;;;;;0.80;0.75;;;;;;;;;;4966856;28;20493;-77
2021/05/27 09:05:26;;;;;;;4.07;1.10;;;;;;;;;;4950630;28;20121;-79
2021/05/27 09:08:28;;;;;;;1.23;0.50;;;;;;;;;;4965381;28;20054;-75
2021/05/27 09:11:15;;;;;;;1.02;0.70;;;;;;;;;;4963571;28;20506;-77
2021/05/27 09:14:19;;;;;;;3.65;1.00;;;;;;;;;;4951860;28;21162;-78
2021/05/27 09:17:27;;;;;;;3.97;1.00;;;;;;;;;;4969175;28;20047;-76
2021/05/27 09:20:15;;;;;;;1.52;0.47;;;;;;;;;;4967655;28;20130;-77
2021/05/27 09:22:46;;;;;;;4.88;1.00;;;;;;;;;;4961318;28;20047;-78
2021/05/27 09:25:28;;;;;;;0.80;0.70;;;;;;;;;;4932140;28;20050;-74
2021/05/27 09:27:56;;;;;;;0.82;0.57;;;;;;;;;;4965474;28;20138;-74
2021/05/27 09:30:23;;;;;;;1.83;0.85;;;;;;;;;;4951517;28;20058;-75
2021/05/27 09:33:08;;;;;;;1.27;0.70;;;;;;;;;;4956343;28;20054;-76
2021/05/27 09:35:35;;;;;;;1.92;0.80;;;;;;;;;;4955523;28;20167;-75
2021/05/27 09:38:02;;;;;;;4.15;0.80;;;;;;;;;;4963139;28;20059;-75
2021/05/27 09:40:31;;;;;;;2.50;1.30;;;;;;;;;;4980565;28;20073;-79
2021/05/27 09:42:59;;;;;;;1.83;0.65;;;;;;;;;;4968870;28;20146;-75
2021/05/27 09:45:31;;;;;;;4.78;0.93;;;;;;;;;;4987155;28;20052;-79
2021/05/27 09:48:16;;;;;;;2.03;0.75;;;;;;;;;;4970341;28;20123;-78
2021/05/27 09:50:43;;;;;;;1.30;1.20;;;;;;;;;;4954503;28;20430;-77
2021/05/27 09:53:21;;;;;;;0.88;0.70;;;;;;;;;;4952980;28;20110;-75
2021/05/27 09:55:48;;;;;;;1.65;0.77;;;;;;;;;;4968951;28;20406;-73
2021/05/27 09:58:16;;;;;;;3.25;0.90;;;;;;;;;;4965221;28;20134;-73
2021/05/27 10:00:44;;;;;;;3.78;1.40;;;;;;;;;;4971370;28;20050;-72
2021/05/27 10:03:36;;;;;;;1.88;1.00;;;;;;;;;;4970577;28;20069;-70
2021/05/27 10:06:05;;;;;;;4.10;1.38;;;;;;;;;;4971698;28;20082;-73
2021/05/27 10:08:54;;;;;;;2.20;1.27;;;;;;;;;;4963321;28;20054;-72
2021/05/27 10:11:23;;;;;;;2.20;1.10;;;;;;;;;;4968321;28;20403;-70
2021/05/27 10:13:50;;;;;;;3.65;1.08;;;;;;;;;;4966032;28;20050;-70
2021/05/27 10:16:22;;;;;;;2.67;0.95;;;;;;;;;;4986030;28;20075;-71
2021/05/27 10:18:51;;;;;;;2.17;1.35;;;;;;;;;;4958763;28;20142;-75
2021/05/27 10:21:18;;;;;;;1.10;0.90;;;;;;;;;;4967607;28;20561;-75
2021/05/27 10:23:50;;;;;;;1.20;1.10;;;;;;;;;;4954709;28;20083;-76
2021/05/27 10:26:16;;;;;;;3.17;1.20;;;;;;;;;;4964716;28;20086;-75
2021/05/27 10:29:03;;;;;;;3.05;1.33;;;;;;;;;;4964082;28;20590;-76
2021/05/27 10:31:36;;;;;;;3.08;1.10;;;;;;;;;;4953000;28;20102;-75
2021/05/27 10:34:04;;;;;;;4.50;1.10;;;;;;;;;;4968643;28;20498;-75
2021/05/27 10:36:44;;;;;;;3.72;1.30;;;;;;;;;;4965947;28;20055;-75
2021/05/27 10:39:29;;;;;;;4.70;1.38;;;;;;;;;;4967991;28;20569;-78
2021/05/27 10:41:56;;;;;;;3.72;1.55;;;;;;;;;;4968621;28;20050;-77
2021/05/27 10:44:24;;;;;;;4.20;1.40;;;;;;;;;;4966374;28;20061;-75
2021/05/27 10:46:54;;;;;;;2.83;1.13;;;;;;;;;;4963494;28;20410;-76
2021/05/27 10:49:40;;;;;;;1.88;1.10;;;;;;;;;;4967518;28;20055;-76
2021/05/27 10:52:25;;;;;;;3.65;1.02;;;;;;;;;;4964414;28;20454;-76
2021/05/27 10:54:51;;;;;;;1.10;0.95;;;;;;;;;;4964659;28;20081;-75
2021/05/27 10:57:40;;;;;;;1.25;1.13;;;;;;;;;;4978993;28;20107;-76
2021/05/27 11:00:19;;;;;;;3.30;1.23;;;;;;;;;;4968019;28;20058;-76
2021/05/27 11:02:46;;;;;;;1.27;0.93;;;;;;;;;;4964015;28;20425;-80
2021/05/27 11:05:14;;;;;;;2.85;1.15;;;;;;;;;;4954346;28;20081;-74
2021/05/27 11:07:41;;;;;;;1.95;1.55;;;;;;;;;;4957017;28;20104;-73
2021/05/27 11:10:28;;;;;;;3.10;1.05;;;;;;;;;;4967077;28;20410;-74
2021/05/27 11:13:02;;;;;;;1.80;1.25;;;;;;;;;;4965591;28;20465;-72
2021/05/27 11:15:29;;;;;;;0.98;0.98;;;;;;;;;;4967171;28;20425;-75
2021/05/27 11:18:04;;;;;;;1.38;0.88;;;;;;;;;;4969197;28;20057;-75
2021/05/27 11:20:34;;;;;;;3.08;1.10;;;;;;;;;;4986695;28;20552;-73
2021/05/27 11:23:21;;;;;;;2.20;0.90;;;;;;;;;;4969102;28;20051;-74
2021/05/27 11:25:50;;;;;;;2.38;1.13;;;;;;;;;;4972477;28;20047;-74
2021/05/27 11:28:17;;;;;;;2.35;1.05;;;;;;;;;;4972562;28;20053;-73
2021/05/27 11:30:47;;;;;;;1.25;0.90;;;;;;;;;;4966917;28;20482;-73
2021/05/27 11:33:15;;;;;;;1.98;1.02;;;;;;;;;;4948859;28;20497;-73
2021/05/27 11:35:44;;;;;;;1.23;0.93;;;;;;;;;;4969566;28;20514;-73
2021/05/27 11:38:22;;;;;;;4.45;1.50;;;;;;;;;;4954706;28;20050;-72
2021/05/27 11:40:55;;;;;;;2.63;1.98;;;;;;;;;;4969526;28;20097;-71
2021/05/27 11:43:49;;;;;;;1.80;1.02;;;;;;;;;;4967418;28;20051;-72
2021/05/27 11:46:17;;;;;;;1.58;0.93;;;;;;;;;;4963767;28;20051;-73
2021/05/27 11:48:56;;;;;;;2.90;1.13;;;;;;;;;;4966423;28;20047;-74
2021/05/27 11:51:29;;;;;;;1.48;1.13;;;;;;;;;;4969078;28;20065;-74
2021/05/27 11:54:05;;;;;;;2.10;1.08;;;;;;;;;;4968502;28;20047;-74
2021/05/27 11:56:43;;;;;;;3.10;0.80;;;;;;;;;;4955071;28;20043;-73
2021/05/27 11:59:19;;;;;;;2.22;1.00;;;;;;;;;;4966785;28;20098;-74
2021/05/27 12:01:51;;;;;;;1.90;0.68;;;;;;;;;;4967229;28;20050;-73
2021/05/27 12:04:24;;;;;;;2.78;1.00;;;;;;;;;;4967536;28;20047;-75
2021/05/27 12:06:59;;;;;;;1.55;0.70;;;;;;;;;;4947514;28;20057;-74
2021/05/27 12:09:47;;;;;;;1.88;0.77;;;;;;;;;;4966891;28;20054;-74
2021/05/27 12:12:24;;;;;;;3.10;0.93;;;;;;;;;;4962254;28;20057;-77
2021/05/27 12:15:06;;;;;;;2.63;1.00;;;;;;;;;;4969027;28;20418;-77
2021/05/27 12:17:39;;;;;;;0.98;0.68;;;;;;;;;;4947443;28;20066;-75
2021/05/27 12:20:13;;;;;;;1.67;0.73;;;;;;;;;;4970579;28;20507;-74
2021/05/27 12:22:55;;;;;;;2.75;0.75;;;;;;;;;;4961956;28;20089;-75
2021/05/27 12:25:33;;;;;;;;;;;;;;;;;;4969978;28;20051;-75
2021/05/27 12:28:02;;;;;;;1.70;1.02;;;;;;;;;;4971104;28;19972;-75
2021/05/27 12:30:30;;;;;;;2.63;1.00;;;;;;;;;;4961320;28;20051;-74
2021/05/27 12:32:57;;;;;;;2.28;0.82;;;;;;;;;;4970861;28;20063;-75
2021/05/27 12:35:30;;;;;;;2.80;1.23;;;;;;;;;;4965150;28;20134;-75
2021/05/27 12:37:59;;;;;;;2.08;0.80;;;;;;;;;;4964216;28;20078;-75
2021/05/27 12:40:33;;;;;;;1.52;0.75;;;;;;;;;;4961595;28;20046;-75
2021/05/27 12:43:02;;;;;;;1.35;0.70;;;;;;;;;;4961014;28;20050;-76
2021/05/27 12:45:32;;;;;;;1.10;0.75;;;;;;;;;;4970346;28;20078;-76
2021/05/27 12:48:21;;;;;;;1.60;0.80;;;;;;;;;;4966211;28;20055;-75
2021/05/27 12:51:03;;;;;;;1.30;0.77;;;;;;;;;;4973051;28;20390;-75
2021/05/27 12:53:32;;;;;;;1.52;1.30;;;;;;;;;;4964203;28;20051;-74
2021/05/27 12:56:11;;;;;;;1.38;1.05;;;;;;;;;;4963318;28;20573;-75
2021/05/27 12:58:49;;;;;;;2.42;0.80;;;;;;;;;;4966469;28;20039;-75
2021/05/27 13:01:29;;;;;;;0.90;0.73;;;;;;;;;;4981159;28;20042;-75
2021/05/27 13:03:57;;;;;;;1.38;1.27;;;;;;;;;;4953232;28;20510;-75
2021/05/27 13:06:29;;;;;;;1.23;1.10;;;;;;;;;;4964887;28;20495;-74
2021/05/27 13:09:01;;;;;;;2.50;0.93;;;;;;;;;;4953041;28;20572;-75
2021/05/27 13:11:34;;;;;;;2.40;0.70;;;;;;;;;;4975426;28;20294;-75
2021/05/27 13:14:25;;;;;;;1.70;0.82;;;;;;;;;;4978535;28;20059;-75
2021/05/27 13:16:58;;;;;;;1.77;0.93;;;;;;;;;;4968589;28;20053;-74
2021/05/27 13:19:25;;;;;;;1.02;0.88;;;;;;;;;;4971593;28;20054;-75
2021/05/27 13:21:53;;;;;;;2.63;0.88;;;;;;;;;;4964786;28;20098;-75
2021/05/27 13:24:28;;;;;;;3.08;0.80;;;;;;;;;;4953228;28;20047;-74
2021/05/27 13:27:29;;;;;;;1.92;0.80;;;;;;;;;;4962834;28;20051;-75
2021/05/27 13:29:58;;;;;;;1.23;0.82;;;;;;;;;;4965109;28;20562;-76
2021/05/27 13:32:29;;;;;;;5.22;0.90;;;;;;;;;;4971851;28;20475;-75
2021/05/27 13:35:00;;;;;;;2.25;0.80;;;;;;;;;;4973676;28;20730;-74
2021/05/27 13:37:33;;;;;;;2.47;1.10;;;;;;;;;;4970870;28;20110;-74
2021/05/27 13:40:04;;;;;;;2.70;0.93;;;;;;;;;;4971904;28;20501;-75
2021/05/27 13:42:31;;;;;;;1.55;1.10;;;;;;;;;;4967802;28;20086;-73
2021/05/27 13:44:57;;;;;;;1.15;0.90;;;;;;;;;;4964774;28;20093;-71
2021/05/27 13:47:25;;;;;;;2.10;0.90;;;;;;;;;;4977133;28;20047;-75
2021/05/27 13:49:52;;;;;;;1.55;0.75;;;;;;;;;;4969772;28;20487;-74
2021/05/27 13:52:20;;;;;;;0.90;0.70;;;;;;;;;;4968549;28;20070;-73
2021/05/27 13:54:52;;;;;;;1.40;0.68;;;;;;;;;;4965245;28;20055;-72
2021/05/27 13:57:19;;;;;;;1.23;1.05;;;;;;;;;;4966841;28;20133;-76
2021/05/27 13:59:46;;;;;;;3.15;0.75;;;;;;;;;;4971821;28;20050;-74
2021/05/27 14:02:14;;;;;;;2.97;1.00;;;;;;;;;;4970882;28;20050;-75
2021/05/27 14:04:41;;;;;;;1.42;1.02;;;;;;;;;;4973523;28;20494;-75
2021/05/27 14:07:08;;;;;;;4.65;1.15;;;;;;;;;;4967043;28;20489;-72
2021/05/27 14:09:38;;;;;;;1.58;1.10;;;;;;;;;;4958373;28;20165;-71
2021/05/27 14:12:05;;;;;;;3.78;1.42;;;;;;;;;;4966290;28;20043;-75
2021/05/27 14:14:34;;;;;;;2.92;1.30;;;;;;;;;;4966766;28;20058;-70
2021/05/27 14:17:01;;;;;;;1.77;1.17;;;;;;;;;;4968374;28;20062;-71
2021/05/27 14:19:28;;;;;;;2.53;0.90;;;;;;;;;;4969454;28;20122;-71
2021/05/27 14:21:55;;;;;;;1.40;0.70;;;;;;;;;;4962227;28;20553;-74
2021/05/27 14:24:22;;;;;;;1.40;0.90;;;;;;;;;;4963760;28;20054;-74
2021/05/27 14:26:49;;;;;;;1.48;0.95;;;;;;;;;;4968694;28;20516;-73
2021/05/27 14:29:16;;;;;;;1.98;1.45;;;;;;;;;;4973693;28;20085;-73
2021/05/27 14:31:45;;;;;;;3.03;1.05;;;;;;;;;;4988889;23;20058;-71
2021/05/27 14:34:15;;;;;;;1.27;0.88;;;;;;;;;;4967169;28;20047;-72
2021/05/27 14:36:55;;;;;;;1.95;0.85;;;;;;;;;;4956740;28;20051;-71
2021/05/27 14:39:22;;;;;;;1.33;1.02;;;;;;;;;;4982824;28;20093;-72
2021/05/27 14:41:51;;;;;;;1.63;1.17;;;;;;;;;;4987999;28;20051;-70
2021/05/27 14:44:27;;;;;;;2.08;1.15;;;;;;;;;;4971688;28;20133;-72
2021/05/27 14:47:02;;;;;;;2.42;1.33;;;;;;;;;;4971916;28;20571;-72
2021/05/27 14:49:29;;;;;;;1.42;0.95;;;;;;;;;;4981708;28;20047;-73
2021/05/27 14:52:18;;;;;;;2.85;1.00;;;;;;;;;;4981981;28;20054;-76
2021/05/27 14:54:45;;;;;;;2.03;1.08;;;;;;;;;;4980314;28;20115;-73
2021/05/27 14:57:11;;;;;;;1.33;0.90;;;;;;;;;;4979565;28;20095;-73
2021/05/27 14:59:38;;;;;;;3.15;0.98;;;;;;;;;;4978409;28;20478;-72
2021/05/27 15:02:05;;;;;;;1.95;0.70;;;;;;;;;;4973907;28;20051;-72
2021/05/27 15:04:33;;;;;;;2.00;0.95;;;;;;;;;;4963136;28;20141;-72
2021/05/27 15:07:02;;;;;;;1.52;0.80;;;;;;;;;;4963800;28;20105;-71